Impacts METAR Board
IDs:

KMIA - Miami Intl, FL, US

Updated at: 1200 UTC 27 Feb 2021
Potential Impact None Slight Moderate High
Time 27/00Z 27/01Z 27/02Z 27/03Z 27/04Z 27/05Z 27/06Z 27/07Z 27/08Z 27/09Z 27/10Z 27/11Z 27/12Z
Temp77 76 76 77 76 76 76 75 75 76 76 75 75
Dewpt67 67 68 70 70 69 68 69 69 69 69 69 69
Altim30.14 30.15 30.16 30.16 30.16 30.15 30.14 30.13 30.13 30.13 30.14 30.15 30.17
VIS10 10 10 10 10 10 10 10 10 10 10 10 10
CIG-- -- -- -- -- -- -- -- -- 38 -- -- --
CoverFEWFEWFEWFEWSCTSCTFEWSCTSCTBKNSCTFEWFEW
FltCatVFRVFRVFRVFRVFRVFRVFRVFRVFRVFRVFRVFRVFR
WX--------------------------
WDir110908010090110110110120110110110110
WSpd10 7 9 10 9 10 12 9 6 11 9 8 9
WGst-- -- -- -- -- -- -- -- -- -- -- -- --
Raw hourly METARs
KMIA 262353Z COR 11010KT 10SM FEW030 25/19 A3014 RMK AO2 SLP206 T02500194 10289 20250 53008
KMIA 270053Z 09007KT 10SM FEW025 24/19 A3015 RMK AO2 SLP209 T02440194
KMIA 270153Z 08009KT 10SM FEW025 24/20 A3016 RMK AO2 SLP212 T02440200
KMIA 270253Z 10010KT 10SM FEW025 25/21 A3016 RMK AO2 SLP214 T02500211 51008
KMIA 270353Z 09009KT 10SM SCT019 SCT043 24/21 A3016 RMK AO2 SLP213 T02440211
KMIA 270453Z 11010KT 10SM SCT019 SCT040 SCT050 24/21 A3015 RMK AO2 SLP210 T02440206 402890217
KMIA 270553Z 11012KT 10SM FEW019 FEW055 24/20 A3014 RMK AO2 SLP206 T02440200 10250 20244 58008
KMIA 270653Z 11009KT 10SM SCT020 SCT035 24/21 A3013 RMK AO2 SLP202 T02390206
KMIA 270753Z 12006KT 10SM SCT020 SCT031 24/21 A3013 RMK AO2 SLP202 T02390206
KMIA 270853Z 11011KT 10SM SCT021 SCT029 BKN038 24/21 A3013 RMK AO2 SLP202 T02440206 55004
KMIA 270953Z 11009KT 10SM FEW021 SCT028 24/21 A3014 RMK AO2 SLP206 T02440206
KMIA 271053Z 11008KT 10SM FEW021 24/21 A3015 RMK AO2 SLP209 T02390206
KMIA 271153Z 11009KT 10SM FEW021 FEW028 24/21 A3017 RMK AO2 SLP215 70001 T02390206 10244 20239 53013



Page loaded:  12:52 UTC  |   04:52 AM Pacific  |   05:52 AM Mountain  |   06:52 AM Central  |   07:52 AM Eastern

 

ADVISORIES

FORECASTS

FORECASTS

OBSERVATIONS

USER TOOLS

ABOUT US